createdAt,value
2023-04-06T00:00:27.196Z,101777.59
2023-04-06T00:02:30.733Z,101774.19
2023-04-06T00:04:34.315Z,101769.06
2023-04-06T00:06:37.793Z,101769.94
2023-04-06T00:08:42.367Z,101767.38
2023-04-06T00:10:46.161Z,101772.56
2023-04-06T00:12:49.641Z,101770.88
2023-04-06T00:14:53.162Z,101774.38
2023-04-06T00:16:58.111Z,101777.84
2023-04-06T00:19:02.036Z,101768.41
2023-04-06T00:21:06.839Z,101766.72
2023-04-06T00:23:10.576Z,101771.88
2023-04-06T00:25:16.387Z,101764.19
2023-04-06T00:27:19.922Z,101760.75
2023-04-06T00:29:26.623Z,101763.38
2023-04-06T00:31:30.223Z,101756.50
2023-04-06T00:33:37.949Z,101759.09
2023-04-06T00:35:41.580Z,101755.72
2023-04-06T00:37:45.490Z,101754.88
2023-04-06T00:39:52.629Z,101754.88
2023-04-06T00:41:56.384Z,101752.31
2023-04-06T00:44:00.284Z,101740.28
2023-04-06T00:46:04.013Z,101754.06
2023-04-06T00:48:10.979Z,101747.19
2023-04-06T00:50:16.098Z,101746.34
2023-04-06T00:52:20.003Z,101743.78
2023-04-06T00:54:24.784Z,101743.78
2023-04-06T00:56:28.892Z,101743.81
2023-04-06T00:58:32.468Z,101748.13
2023-04-06T01:00:42.809Z,101738.69
2023-04-06T01:02:52.555Z,101735.25
2023-04-06T01:04:59.270Z,101733.53
2023-04-06T01:07:14.396Z,101737.00
2023-04-06T01:09:27.322Z,101735.28
2023-04-06T01:11:31.118Z,101732.75
2023-04-06T01:13:34.985Z,101728.47
2023-04-06T01:15:42.488Z,101728.47
2023-04-06T01:17:48.986Z,101719.03
2023-04-06T01:19:55.848Z,101722.50
2023-04-06T01:22:04.679Z,101720.78
2023-04-06T01:24:11.395Z,101722.53
2023-04-06T01:26:38.067Z,101725.13
2023-04-06T01:28:45.676Z,101716.53
2023-04-06T01:31:02.034Z,101728.59
2023-04-06T01:33:27.600Z,101720.00
2023-04-06T01:35:37.527Z,101723.44
2023-04-06T01:37:51.419Z,101724.31
2023-04-06T01:40:05.387Z,101719.22
2023-04-06T01:42:24.036Z,101714.94
2023-04-06T01:44:28.052Z,101717.50
2023-04-06T01:46:42.564Z,101711.50
2023-04-06T01:48:47.779Z,101715.81
2023-04-06T01:50:56.761Z,101710.66
2023-04-06T01:53:06.352Z,101709.81
2023-04-06T01:55:12.385Z,101708.97
2023-04-06T01:57:34.589Z,101706.41
2023-04-06T01:59:55.547Z,101708.13
2023-04-06T02:02:05.948Z,101711.56
2023-04-06T02:04:18.858Z,101697.84
2023-04-06T02:06:25.994Z,101706.44
2023-04-06T02:08:29.626Z,101698.72
2023-04-06T02:10:36.626Z,101699.59
2023-04-06T02:12:48.513Z,101703.03
2023-04-06T02:14:58.273Z,101701.31
2023-04-06T02:17:01.879Z,101699.59
2023-04-06T02:19:05.433Z,101693.59
2023-04-06T02:21:09.707Z,101691.03
2023-04-06T02:23:15.115Z,101694.47
2023-04-06T02:25:19.425Z,101688.50
2023-04-06T02:27:24.679Z,101687.66
2023-04-06T02:29:28.213Z,101685.09
2023-04-06T02:31:31.967Z,101691.09
2023-04-06T02:33:36.095Z,101685.09
2023-04-06T02:35:40.104Z,101689.41
2023-04-06T02:37:44.680Z,101691.13
2023-04-06T02:39:48.468Z,101687.69
2023-04-06T02:41:53.026Z,101692.84
2023-04-06T02:44:01.683Z,101692.84
2023-04-06T02:46:14.353Z,101687.72
2023-04-06T02:48:21.773Z,101691.16
2023-04-06T02:50:27.196Z,101685.13
2023-04-06T02:52:36.520Z,101694.59
2023-04-06T02:54:40.642Z,101691.16
2023-04-06T02:56:44.184Z,101687.75
2023-04-06T02:58:48.410Z,101691.19
2023-04-06T03:00:53.382Z,101685.19
2023-04-06T03:02:57.445Z,101681.75
2023-04-06T03:05:04.253Z,101684.34
2023-04-06T03:07:12.052Z,101683.47
2023-04-06T03:09:17.023Z,101686.06
2023-04-06T03:11:21.892Z,101681.78
2023-04-06T03:13:27.691Z,101674.91
2023-04-06T03:15:34.310Z,101681.78
2023-04-06T03:17:50.002Z,101684.34
2023-04-06T03:20:08.238Z,101687.78
2023-04-06T03:22:12.001Z,101692.94
2023-04-06T03:24:16.053Z,101687.78
2023-04-06T03:26:20.477Z,101692.94
2023-04-06T03:28:24.012Z,101689.50
2023-04-06T03:30:31.828Z,101691.19
2023-04-06T03:32:35.764Z,101689.47
2023-04-06T03:34:41.653Z,101689.44
2023-04-06T03:36:46.296Z,101706.59
2023-04-06T03:38:51.498Z,101693.69
2023-04-06T03:40:56.751Z,101702.25
2023-04-06T03:43:03.401Z,101700.47
2023-04-06T03:45:10.925Z,101700.41
2023-04-06T03:47:21.177Z,101694.38
2023-04-06T03:49:25.189Z,101696.91
2023-04-06T03:51:31.852Z,101697.75
2023-04-06T03:53:35.508Z,101702.84
2023-04-06T03:55:39.106Z,101696.81
2023-04-06T03:57:42.711Z,101693.38
2023-04-06T03:59:46.424Z,101697.66
2023-04-06T04:01:50.001Z,101694.22
2023-04-06T04:03:53.765Z,101691.66
2023-04-06T04:05:57.439Z,101701.97
2023-04-06T04:08:04.115Z,101701.13
2023-04-06T04:10:09.136Z,101697.69
2023-04-06T04:12:12.706Z,101695.19
2023-04-06T04:14:16.260Z,101696.91
2023-04-06T04:16:19.866Z,101702.09
2023-04-06T04:18:23.532Z,101703.81
2023-04-06T04:20:27.149Z,101701.25
2023-04-06T04:22:30.739Z,101705.59
2023-04-06T04:24:36.175Z,101711.59
2023-04-06T04:26:40.720Z,101715.06
2023-04-06T04:28:44.496Z,101714.19
2023-04-06T04:30:48.493Z,101711.63
2023-04-06T04:32:52.507Z,101715.94
2023-04-06T04:34:58.997Z,101712.50
2023-04-06T04:37:12.309Z,101709.94
2023-04-06T04:39:28.557Z,101713.41
2023-04-06T04:41:41.211Z,101715.09
2023-04-06T04:43:47.107Z,101712.56
2023-04-06T04:45:55.556Z,101711.69
2023-04-06T04:48:14.218Z,101710.84
2023-04-06T04:50:34.946Z,101715.13
2023-04-06T04:52:39.640Z,101711.69
2023-04-06T04:54:53.110Z,101709.13
2023-04-06T04:57:03.690Z,101711.69
2023-04-06T04:59:17.540Z,101721.13
2023-04-06T05:01:27.868Z,101711.66
2023-04-06T05:03:32.214Z,101714.22
2023-04-06T05:05:39.283Z,101711.66
2023-04-06T05:07:43.686Z,101715.06
2023-04-06T05:09:54.248Z,101710.75
2023-04-06T05:12:00.966Z,101712.47
2023-04-06T05:14:07.344Z,101708.16
2023-04-06T05:16:11.215Z,101715.88
2023-04-06T05:18:15.240Z,101713.28
2023-04-06T05:20:18.892Z,101704.66
2023-04-06T05:22:26.578Z,101710.66
2023-04-06T05:24:47.541Z,101709.78
2023-04-06T05:26:51.590Z,101713.16
2023-04-06T05:28:59.806Z,101715.72
2023-04-06T05:31:07.561Z,101713.13
2023-04-06T05:33:20.969Z,101707.09
2023-04-06T05:35:39.407Z,101707.94
2023-04-06T05:37:48.076Z,101707.91
2023-04-06T05:39:51.933Z,101707.88
2023-04-06T05:41:56.541Z,101708.72
2023-04-06T05:44:14.987Z,101706.13
2023-04-06T05:46:23.551Z,101703.53
2023-04-06T05:48:27.504Z,101706.03
2023-04-06T05:50:31.352Z,101709.44
2023-04-06T05:52:36.071Z,101718.00
2023-04-06T05:54:39.744Z,101711.06
2023-04-06T05:56:43.491Z,101704.16
2023-04-06T05:58:49.111Z,101706.63
2023-04-06T06:00:59.896Z,101709.16
2023-04-06T06:03:09.670Z,101712.56
2023-04-06T06:05:14.854Z,101711.63
2023-04-06T06:07:19.585Z,101712.44
2023-04-06T06:09:33.098Z,101713.16
2023-04-06T06:11:45.949Z,101710.53
2023-04-06T06:13:51.901Z,101707.00
2023-04-06T06:15:55.516Z,101706.91
2023-04-06T06:18:00.276Z,101707.69
2023-04-06T06:20:06.734Z,101708.47
2023-04-06T06:22:10.641Z,101710.09
2023-04-06T06:24:18.058Z,101706.53
2023-04-06T06:26:21.880Z,101712.47
2023-04-06T06:28:27.391Z,101706.34
2023-04-06T06:30:31.030Z,101714.84
2023-04-06T06:32:35.016Z,101712.97
2023-04-06T06:34:38.644Z,101712.03
2023-04-06T06:36:47.864Z,101714.50
2023-04-06T06:38:53.219Z,101720.34
2023-04-06T06:40:58.230Z,101711.63
2023-04-06T06:43:04.791Z,101714.06
2023-04-06T06:45:23.227Z,101713.88
2023-04-06T06:47:27.284Z,101716.31
2023-04-06T06:49:30.776Z,101714.44
2023-04-06T06:51:34.415Z,101708.25
2023-04-06T06:53:40.076Z,101716.69
2023-04-06T06:55:45.268Z,101713.03
2023-04-06T06:57:49.143Z,101714.56
2023-04-06T06:59:52.927Z,101714.41
2023-04-06T07:01:57.992Z,101712.41
2023-04-06T07:04:01.617Z,101707.00
2023-04-06T07:06:05.659Z,101702.44
2023-04-06T07:08:09.189Z,101706.53
2023-04-06T07:10:14.388Z,101712.34
2023-04-06T07:12:18.262Z,101707.78
2023-04-06T07:14:21.943Z,101701.47
2023-04-06T07:16:25.702Z,101698.59
2023-04-06T07:18:32.891Z,101706.06
2023-04-06T07:20:38.380Z,101704.91
2023-04-06T07:22:41.895Z,101704.63
2023-04-06T07:24:45.595Z,101702.59
2023-04-06T07:26:50.494Z,101697.97
2023-04-06T07:28:54.130Z,101689.06
2023-04-06T07:31:00.115Z,101699.16
2023-04-06T07:33:03.909Z,101697.22
2023-04-06T07:35:08.363Z,101695.19
2023-04-06T07:37:12.244Z,101701.84
2023-04-06T07:39:16.002Z,101697.28
2023-04-06T07:41:19.700Z,101696.16
2023-04-06T07:43:24.643Z,101694.19
2023-04-06T07:45:28.777Z,101696.53
2023-04-06T07:47:33.223Z,101698.88
2023-04-06T07:49:37.618Z,101692.63
2023-04-06T07:51:42.748Z,101694.94
2023-04-06T07:53:46.644Z,101692.97
2023-04-06T07:55:50.154Z,101694.41
2023-04-06T07:57:53.781Z,101688.09
2023-04-06T07:59:58.751Z,101689.47
2023-04-06T08:02:02.679Z,101687.50
2023-04-06T08:04:06.615Z,101686.44
2023-04-06T08:06:10.428Z,101692.34
2023-04-06T08:08:14.016Z,101689.50
2023-04-06T08:10:17.788Z,101686.72
2023-04-06T08:12:21.348Z,101684.81
2023-04-06T08:14:24.864Z,101689.81
2023-04-06T08:16:29.832Z,101682.72
2023-04-06T08:18:33.410Z,101682.47
2023-04-06T08:20:37.080Z,101679.63
2023-04-06T08:22:41.032Z,101685.38
2023-04-06T08:24:44.622Z,101679.00
2023-04-06T08:26:48.185Z,101675.28
2023-04-06T08:28:51.782Z,101675.88
2023-04-06T08:30:55.452Z,101669.50
2023-04-06T08:33:00.581Z,101669.19
2023-04-06T08:35:04.157Z,101669.75
2023-04-06T08:37:08.602Z,101669.53
2023-04-06T08:39:12.248Z,101671.84
2023-04-06T08:41:16.163Z,101676.81
2023-04-06T08:43:22.760Z,101664.41
2023-04-06T08:45:26.537Z,101666.78
2023-04-06T08:47:30.754Z,101664.81
2023-04-06T08:49:36.984Z,101668.13
2023-04-06T08:51:40.556Z,101665.28
2023-04-06T08:53:44.336Z,101664.97
2023-04-06T08:55:48.045Z,101663.78
2023-04-06T08:57:54.486Z,101661.81
2023-04-06T08:59:59.300Z,101659.75
2023-04-06T09:02:06.650Z,101664.72
2023-04-06T09:04:12.668Z,101671.38
2023-04-06T09:06:18.829Z,101665.03
2023-04-06T09:08:22.308Z,101658.72
2023-04-06T09:10:26.879Z,101663.69
2023-04-06T09:12:31.803Z,101658.19
2023-04-06T09:14:39.047Z,101654.41
2023-04-06T09:16:43.552Z,101655.03
2023-04-06T09:18:47.589Z,101650.50
2023-04-06T09:20:59.773Z,101659.84
2023-04-06T09:23:04.694Z,101649.22
2023-04-06T09:25:10.532Z,101657.78
2023-04-06T09:27:14.755Z,101648.94
2023-04-06T09:29:28.372Z,101651.25
2023-04-06T09:31:34.640Z,101652.75
2023-04-06T09:33:40.872Z,101642.84
2023-04-06T09:35:52.092Z,101645.13
2023-04-06T09:37:56.443Z,101649.28
2023-04-06T09:40:08.195Z,101645.78
2023-04-06T09:42:11.997Z,101636.22
2023-04-06T09:44:15.569Z,101627.41
2023-04-06T09:46:22.195Z,101631.50
2023-04-06T09:48:29.131Z,101624.38
2023-04-06T09:50:34.625Z,101632.78
2023-04-06T09:52:42.862Z,101627.13
2023-04-06T09:54:52.272Z,101618.09
2023-04-06T09:57:00.616Z,101617.03
2023-04-06T09:59:08.159Z,101616.84
2023-04-06T10:01:14.487Z,101615.00
2023-04-06T10:03:30.067Z,101611.34
2023-04-06T10:05:39.772Z,101617.97
2023-04-06T10:07:59.059Z,101604.69
2023-04-06T10:10:05.482Z,101617.22
2023-04-06T10:12:11.665Z,101613.53
2023-04-06T10:14:15.581Z,101611.56
2023-04-06T10:16:19.623Z,101613.09
2023-04-06T10:18:23.971Z,101609.28
2023-04-06T10:20:33.217Z,101610.72
2023-04-06T10:22:41.369Z,101614.81
2023-04-06T10:24:44.892Z,101602.50
2023-04-06T10:26:59.688Z,101602.41
2023-04-06T10:29:06.604Z,101604.09
2023-04-06T10:31:10.196Z,101615.97
2023-04-06T10:33:16.780Z,101607.72
2023-04-06T10:35:20.346Z,101608.94
2023-04-06T10:37:24.963Z,101604.94
2023-04-06T10:39:30.862Z,101611.56
2023-04-06T10:41:36.402Z,101598.94
2023-04-06T10:43:41.669Z,101597.75
2023-04-06T10:45:46.970Z,101592.38
2023-04-06T10:47:50.713Z,101592.09
2023-04-06T10:49:54.366Z,101591.00
2023-04-06T10:51:58.785Z,101582.91
2023-04-06T10:54:06.070Z,101592.22
2023-04-06T10:56:13.503Z,101589.28
2023-04-06T10:58:17.091Z,101581.06
2023-04-06T11:00:21.809Z,101582.44
2023-04-06T11:02:26.924Z,101593.19
2023-04-06T11:04:30.985Z,101584.78
2023-04-06T11:06:34.671Z,101587.00
2023-04-06T11:08:39.121Z,101578.13
2023-04-06T11:10:42.787Z,101569.16
2023-04-06T11:12:46.404Z,101580.25
2023-04-06T11:14:56.975Z,101564.13
2023-04-06T11:17:00.597Z,101561.25
2023-04-06T11:19:08.116Z,101573.84
2023-04-06T11:21:12.022Z,101557.66
2023-04-06T11:23:24.981Z,101557.47
2023-04-06T11:25:31.043Z,101562.53
2023-04-06T11:27:35.520Z,101564.91
2023-04-06T11:29:39.719Z,101559.13
2023-04-06T11:31:44.740Z,101560.47
2023-04-06T11:33:48.340Z,101568.91
2023-04-06T11:35:53.480Z,101556.63
2023-04-06T11:37:58.598Z,101559.16
2023-04-06T11:40:04.021Z,101557.22
2023-04-06T11:42:09.173Z,101556.03
2023-04-06T11:44:13.231Z,101553.78
2023-04-06T11:46:21.449Z,101555.09
2023-04-06T11:48:27.925Z,101553.03
2023-04-06T11:50:36.145Z,101549.28
2023-04-06T11:52:42.058Z,101551.66
2023-04-06T11:54:46.154Z,101551.28
2023-04-06T11:56:50.100Z,101549.94
2023-04-06T11:58:54.092Z,101544.31
2023-04-06T12:01:05.953Z,101540.38
2023-04-06T12:03:09.555Z,101544.31
2023-04-06T12:05:13.516Z,101539.50
2023-04-06T12:07:17.220Z,101537.44
2023-04-06T12:09:22.241Z,101536.22
2023-04-06T12:11:26.218Z,101536.56
2023-04-06T12:13:30.798Z,101529.22
2023-04-06T12:15:34.527Z,101521.69
2023-04-06T12:17:38.503Z,101519.31
2023-04-06T12:19:42.105Z,101523.31
2023-04-06T12:21:45.664Z,101521.03
2023-04-06T12:23:49.341Z,101517.75
2023-04-06T12:25:55.611Z,101532.28
2023-04-06T12:27:59.212Z,101532.06
2023-04-06T12:30:03.607Z,101523.22
2023-04-06T12:32:07.749Z,101521.53
2023-04-06T12:34:11.306Z,101521.34
2023-04-06T12:36:15.213Z,101512.28
2023-04-06T12:38:19.010Z,101515.25
2023-04-06T12:40:23.200Z,101515.72
2023-04-06T12:42:28.242Z,101519.59
2023-04-06T12:44:31.956Z,101512.31
2023-04-06T12:46:36.294Z,101510.44
2023-04-06T12:48:40.818Z,101513.81
2023-04-06T12:50:44.602Z,101508.53
2023-04-06T12:52:49.333Z,101510.22
2023-04-06T12:54:53.838Z,101502.22
2023-04-06T12:56:58.081Z,101502.88
2023-04-06T12:59:03.266Z,101507.94
2023-04-06T13:01:09.349Z,101498.84
2023-04-06T13:03:13.104Z,101495.59
2023-04-06T13:05:19.942Z,101490.22
2023-04-06T13:07:23.926Z,101492.81
2023-04-06T13:09:27.501Z,101502.88
2023-04-06T13:11:32.100Z,101498.22
2023-04-06T13:13:35.688Z,101499.44
2023-04-06T13:15:40.752Z,101490.00
2023-04-06T13:17:44.369Z,101488.38
2023-04-06T13:19:48.062Z,101487.00
2023-04-06T13:21:51.853Z,101484.88
2023-04-06T13:23:55.674Z,101475.41
2023-04-06T13:26:01.735Z,101483.78
2023-04-06T13:28:05.720Z,101477.53
2023-04-06T13:30:11.061Z,101478.00
2023-04-06T13:32:16.940Z,101478.47
2023-04-06T13:34:24.066Z,101481.00
2023-04-06T13:36:30.999Z,101476.47
2023-04-06T13:38:34.869Z,101475.25
2023-04-06T13:40:41.163Z,101468.53
2023-04-06T13:42:46.062Z,101471.53
2023-04-06T13:44:51.726Z,101463.25
2023-04-06T13:46:58.332Z,101466.38
2023-04-06T13:49:03.684Z,101473.81
2023-04-06T13:51:13.619Z,101464.44
2023-04-06T13:53:17.359Z,101466.13
2023-04-06T13:55:21.024Z,101463.59
2023-04-06T13:57:24.649Z,101471.41
2023-04-06T13:59:35.511Z,101459.28
2023-04-06T14:01:40.854Z,101456.75
2023-04-06T14:03:48.431Z,101451.66
2023-04-06T14:05:54.007Z,101464.63
2023-04-06T14:07:57.946Z,101466.28
2023-04-06T14:10:01.511Z,101460.97
2023-04-06T14:12:05.037Z,101453.38
2023-04-06T14:14:08.555Z,101462.59
2023-04-06T14:16:12.362Z,101453.44
2023-04-06T14:18:16.240Z,101450.06
2023-04-06T14:20:19.840Z,101457.97
2023-04-06T14:22:24.746Z,101457.38
2023-04-06T14:24:28.368Z,101452.00
2023-04-06T14:26:33.128Z,101445.84
2023-04-06T14:28:37.931Z,101447.88
2023-04-06T14:30:41.602Z,101448.72
2023-04-06T14:32:45.108Z,101439.19
2023-04-06T14:34:48.677Z,101437.56
2023-04-06T14:36:52.440Z,101436.78
2023-04-06T14:38:59.189Z,101443.81
2023-04-06T14:41:02.848Z,101434.41
2023-04-06T14:43:06.412Z,101439.31
2023-04-06T14:45:10.657Z,101437.50
2023-04-06T14:47:16.805Z,101444.16
2023-04-06T14:49:21.775Z,101439.66
2023-04-06T14:51:29.091Z,101434.59
2023-04-06T14:53:37.407Z,101435.13
2023-04-06T14:55:45.497Z,101435.28
2023-04-06T14:57:51.313Z,101435.88
2023-04-06T15:00:01.627Z,101431.50
2023-04-06T15:02:07.973Z,101431.53
2023-04-06T15:04:16.185Z,101431.88
2023-04-06T15:06:26.134Z,101436.66
2023-04-06T15:08:39.201Z,101429.44
2023-04-06T15:10:51.620Z,101436.03
2023-04-06T15:12:57.583Z,101434.94
2023-04-06T15:15:07.574Z,101419.53
2023-04-06T15:17:11.035Z,101426.06
2023-04-06T15:19:17.130Z,101422.38
2023-04-06T15:21:29.328Z,101427.88
2023-04-06T15:23:35.620Z,101427.78
2023-04-06T15:25:44.320Z,101425.53
2023-04-06T15:27:52.323Z,101423.84
2023-04-06T15:29:56.676Z,101422.16
2023-04-06T15:32:00.158Z,101429.72
2023-04-06T15:34:03.666Z,101424.53
2023-04-06T15:36:10.820Z,101421.38
2023-04-06T15:38:14.524Z,101422.06
2023-04-06T15:40:17.948Z,101419.72
2023-04-06T15:42:21.433Z,101424.13
2023-04-06T15:44:27.228Z,101426.69
2023-04-06T15:46:30.976Z,101422.22
2023-04-06T15:48:34.950Z,101423.63
2023-04-06T15:50:38.827Z,101424.47
2023-04-06T15:52:42.288Z,101411.22
2023-04-06T15:54:46.208Z,101413.84
2023-04-06T15:56:50.659Z,101413.03
2023-04-06T15:58:54.179Z,101413.03
2023-04-06T16:00:59.417Z,101399.22
2023-04-06T16:03:03.052Z,101410.78
2023-04-06T16:05:07.106Z,101418.56
2023-04-06T16:07:10.722Z,101419.59
2023-04-06T16:09:14.159Z,101415.34
2023-04-06T16:11:17.606Z,101418.75
2023-04-06T16:13:21.618Z,101421.66
2023-04-06T16:15:25.107Z,101419.09
2023-04-06T16:17:30.016Z,101418.41
2023-04-06T16:19:33.573Z,101417.72
2023-04-06T16:21:37.018Z,101415.56
2023-04-06T16:23:42.138Z,101407.56
2023-04-06T16:25:45.898Z,101419.75
2023-04-06T16:27:49.429Z,101413.41
2023-04-06T16:29:52.912Z,101415.66
2023-04-06T16:31:56.332Z,101409.13
2023-04-06T16:34:01.172Z,101409.38
2023-04-06T16:36:04.668Z,101414.84
2023-04-06T16:38:08.177Z,101415.06
2023-04-06T16:40:12.244Z,101406.34
2023-04-06T16:42:17.656Z,101400.94
2023-04-06T16:44:21.092Z,101407.97
2023-04-06T16:46:30.843Z,101418.34
2023-04-06T16:48:34.317Z,101413.13
2023-04-06T16:50:39.121Z,101414.19
2023-04-06T16:52:43.027Z,101407.84
2023-04-06T16:54:46.559Z,101420.63
2023-04-06T16:56:50.013Z,101406.13
2023-04-06T16:58:53.532Z,101409.28
2023-04-06T17:00:57.048Z,101414.13
2023-04-06T17:03:00.744Z,101411.97
2023-04-06T17:05:04.859Z,101414.91
2023-04-06T17:07:10.891Z,101413.06
2023-04-06T17:09:14.407Z,101414.31
2023-04-06T17:11:23.514Z,101415.03
2023-04-06T17:13:31.443Z,101422.75
2023-04-06T17:15:35.284Z,101419.25
2023-04-06T17:17:39.135Z,101420.03
2023-04-06T17:19:42.580Z,101411.25
2023-04-06T17:21:46.106Z,101422.50
2023-04-06T17:23:51.068Z,101422.53
2023-04-06T17:25:57.582Z,101420.66
2023-04-06T17:28:01.477Z,101420.44
2023-04-06T17:30:06.818Z,101428.13
2023-04-06T17:32:10.267Z,101419.31
2023-04-06T17:34:13.659Z,101421.06
2023-04-06T17:36:17.061Z,101430.50
2023-04-06T17:38:21.234Z,101428.59
2023-04-06T17:40:26.350Z,101429.28
2023-04-06T17:42:29.838Z,101430.00
2023-04-06T17:44:33.527Z,101432.22
2023-04-06T17:46:37.015Z,101438.94
2023-04-06T17:48:40.669Z,101436.72
2023-04-06T17:50:44.581Z,101436.31
2023-04-06T17:52:49.928Z,101442.00
2023-04-06T17:54:53.708Z,101444.09
2023-04-06T17:56:58.691Z,101443.66
2023-04-06T17:59:02.657Z,101457.06
2023-04-06T18:01:08.479Z,101456.56
2023-04-06T18:03:12.026Z,101454.34
2023-04-06T18:05:15.501Z,101461.59
2023-04-06T18:07:18.890Z,101466.31
2023-04-06T18:09:22.448Z,101463.13
2023-04-06T18:11:27.572Z,101461.72
2023-04-06T18:13:32.537Z,101459.44
2023-04-06T18:15:38.372Z,101465.75
2023-04-06T18:17:41.930Z,101474.75
2023-04-06T18:19:45.495Z,101467.25
2023-04-06T18:21:48.991Z,101477.94
2023-04-06T18:23:53.440Z,101472.09
2023-04-06T18:25:56.978Z,101482.88
2023-04-06T18:28:00.463Z,101484.00
2023-04-06T18:30:06.021Z,101481.66
2023-04-06T18:32:09.417Z,101483.66
2023-04-06T18:34:12.922Z,101484.78
2023-04-06T18:36:16.463Z,101485.00
2023-04-06T18:38:19.905Z,101485.31
2023-04-06T18:40:33.175Z,101482.94
2023-04-06T18:42:38.214Z,101490.25
2023-04-06T18:44:41.582Z,101491.44
2023-04-06T18:46:47.470Z,101487.34
2023-04-06T18:48:50.926Z,101492.06
2023-04-06T18:50:55.153Z,101498.34
2023-04-06T18:52:58.658Z,101490.78
2023-04-06T18:55:02.275Z,101492.69
2023-04-06T18:57:06.220Z,101500.75
2023-04-06T18:59:10.814Z,101490.53
2023-04-06T19:01:21.841Z,101488.13
2023-04-06T19:03:27.751Z,101506.56
2023-04-06T19:05:31.388Z,101509.38
2023-04-06T19:07:36.138Z,101508.69
2023-04-06T19:09:39.603Z,101507.13
2023-04-06T19:11:43.096Z,101503.78
2023-04-06T19:13:50.302Z,101504.06
2023-04-06T19:15:53.934Z,101507.66
2023-04-06T19:17:57.447Z,101503.56
2023-04-06T19:20:02.981Z,101511.59
2023-04-06T19:22:06.724Z,101506.50
2023-04-06T19:24:13.469Z,101509.31
2023-04-06T19:26:18.148Z,101511.16
2023-04-06T19:28:21.651Z,101513.97
2023-04-06T19:30:25.443Z,101513.19
2023-04-06T19:32:30.294Z,101517.63
2023-04-06T19:34:34.033Z,101511.69
2023-04-06T19:36:38.978Z,101508.38
2023-04-06T19:38:42.603Z,101511.13
2023-04-06T19:40:46.366Z,101516.47
2023-04-06T19:42:49.821Z,101513.22
2023-04-06T19:44:53.300Z,101511.66
2023-04-06T19:46:57.074Z,101522.22
2023-04-06T19:49:01.926Z,101518.06
2023-04-06T19:51:05.408Z,101515.56
2023-04-06T19:53:10.355Z,101521.75
2023-04-06T19:55:13.886Z,101519.22
2023-04-06T19:57:17.473Z,101519.34
2023-04-06T19:59:21.566Z,101521.16
2023-04-06T20:01:25.115Z,101528.25
2023-04-06T20:03:28.749Z,101521.31
2023-04-06T20:05:35.854Z,101524.84
2023-04-06T20:07:41.232Z,101514.47
2023-04-06T20:09:47.013Z,101519.75
2023-04-06T20:11:50.717Z,101522.44
2023-04-06T20:13:54.238Z,101521.56
2023-04-06T20:15:59.060Z,101514.72
2023-04-06T20:18:04.473Z,101514.00
2023-04-06T20:20:09.328Z,101522.78
2023-04-06T20:22:13.703Z,101516.84
2023-04-06T20:24:19.280Z,101523.91
2023-04-06T20:26:24.197Z,101520.50
2023-04-06T20:28:27.668Z,101513.59
2023-04-06T20:30:31.843Z,101527.53
2023-04-06T20:32:35.361Z,101516.28
2023-04-06T20:34:39.186Z,101518.94
2023-04-06T20:36:43.394Z,101518.16
2023-04-06T20:38:47.060Z,101517.38
2023-04-06T20:40:50.503Z,101524.41
2023-04-06T20:42:58.038Z,101524.53
2023-04-06T20:45:03.280Z,101516.84
2023-04-06T20:47:08.056Z,101516.91
2023-04-06T20:49:12.841Z,101516.03
2023-04-06T20:51:20.651Z,101517.88
2023-04-06T20:53:24.451Z,101514.47
2023-04-06T20:55:31.354Z,101514.59
2023-04-06T20:57:38.004Z,101518.09
2023-04-06T20:59:46.352Z,101520.88
2023-04-06T21:01:49.917Z,101514.84
2023-04-06T21:03:54.029Z,101511.47
2023-04-06T21:06:00.017Z,101514.13
2023-04-06T21:08:03.760Z,101514.19
2023-04-06T21:10:09.573Z,101517.69
2023-04-06T21:12:13.780Z,101511.69
2023-04-06T21:14:19.446Z,101515.22
2023-04-06T21:16:27.873Z,101508.31
2023-04-06T21:18:32.763Z,101509.22
2023-04-06T21:20:37.154Z,101510.13
2023-04-06T21:22:42.129Z,101506.72
2023-04-06T21:24:47.726Z,101510.25
2023-04-06T21:26:51.901Z,101509.38
2023-04-06T21:28:55.615Z,101509.44
2023-04-06T21:31:01.085Z,101508.72
2023-04-06T21:33:06.732Z,101516.59
2023-04-06T21:35:11.994Z,101507.22
2023-04-06T21:37:17.162Z,101515.94
2023-04-06T21:39:24.106Z,101509.03
2023-04-06T21:41:30.163Z,101512.53
2023-04-06T21:43:34.063Z,101505.63
2023-04-06T21:45:38.117Z,101507.44
2023-04-06T21:47:41.944Z,101511.03
2023-04-06T21:49:47.100Z,101505.03
2023-04-06T21:51:50.912Z,101513.78
2023-04-06T21:53:56.554Z,101513.91
2023-04-06T21:56:01.187Z,101509.59
2023-04-06T21:58:05.352Z,101504.50
2023-04-06T22:00:10.995Z,101515.00
2023-04-06T22:02:21.178Z,101515.06
2023-04-06T22:04:25.639Z,101507.38
2023-04-06T22:06:30.844Z,101508.41
2023-04-06T22:08:35.073Z,101503.31
2023-04-06T22:10:40.107Z,101499.97
2023-04-06T22:12:43.806Z,101506.13
2023-04-06T22:14:47.413Z,101503.63
2023-04-06T22:16:51.097Z,101502.03
2023-04-06T22:18:54.636Z,101505.63
2023-04-06T22:20:58.329Z,101509.19
2023-04-06T22:23:03.354Z,101502.34
2023-04-06T22:25:08.735Z,101501.63
2023-04-06T22:27:12.271Z,101506.03
2023-04-06T22:29:15.749Z,101501.78
2023-04-06T22:31:19.250Z,101501.88
2023-04-06T22:33:22.825Z,101506.34
2023-04-06T22:35:26.480Z,101500.41
2023-04-06T22:37:30.080Z,101501.38
2023-04-06T22:39:35.024Z,101500.59
2023-04-06T22:41:38.494Z,101502.44
2023-04-06T22:43:42.489Z,101499.97
2023-04-06T22:45:46.068Z,101499.19
2023-04-06T22:47:49.605Z,101505.38
2023-04-06T22:49:53.140Z,101510.69
2023-04-06T22:51:56.737Z,101513.41
2023-04-06T22:54:00.553Z,101512.59
2023-04-06T22:56:05.637Z,101516.19
2023-04-06T22:58:09.221Z,101523.25
2023-04-06T23:00:13.764Z,101516.34
2023-04-06T23:02:17.354Z,101514.75
2023-04-06T23:04:21.211Z,101515.75
2023-04-06T23:06:24.883Z,101523.66
2023-04-06T23:08:28.286Z,101520.25
2023-04-06T23:10:31.689Z,101519.44
2023-04-06T23:12:36.544Z,101519.63
2023-04-06T23:14:39.989Z,101522.28
2023-04-06T23:16:43.526Z,101524.19
2023-04-06T23:18:47.010Z,101526.88
2023-04-06T23:20:50.539Z,101521.78
2023-04-06T23:22:53.942Z,101524.47
2023-04-06T23:24:57.364Z,101526.28
2023-04-06T23:27:00.776Z,101521.16
2023-04-06T23:29:05.562Z,101527.31
2023-04-06T23:31:09.069Z,101521.25
2023-04-06T23:33:13.034Z,101520.53
2023-04-06T23:35:16.422Z,101524.03
2023-04-06T23:37:19.844Z,101527.47
2023-04-06T23:39:23.319Z,101529.22
2023-04-06T23:41:27.249Z,101530.13
2023-04-06T23:43:30.730Z,101526.69
2023-04-06T23:45:35.511Z,101534.53
2023-04-06T23:47:38.991Z,101525.13
2023-04-06T23:49:42.449Z,101526.88
2023-04-06T23:51:45.934Z,101526.97